Airport Name : Alghero

Other Name : Alghero

ICAO : LIEA

IATA : AHO

FAA :

Latitude : 40.632133

Longitude : 8.290772

Country : Italy

Local Date and Time : 20 Apr 2021 16:06

 

TAF (Terminal Aerodrome Forecast)

TAF LIEA 201100Z 2012/2112 23010KT 9999 FEW020 BECMG 2016/2018 VRB04KT

 

METAR (METeorological Aerodrome Report)

LIEA 201350Z 26005KT 170V300 9999 SCT040 17/08 Q1016

LIEA 201320Z 26006KT 180V340 9999 SCT040 17/08 Q1016

LIEA 201250Z 20009KT 170V250 9999 SCT040 18/09 Q1016

LIEA 201220Z 20010KT 9999 SCT040 17/09 Q1016

LIEA 201150Z 19010KT 9999 SCT030 17/09 Q1017

LIEA 201120Z 20010KT 170V230 9999 SCT030 17/09 Q1017

LIEA 201050Z 19010KT 9999 SCT030 17/09 Q1017

LIEA 201020Z 19011KT 9999 FEW030 16/09 Q1017

To Charter a Jet Click here.